KALW

Walla Walla Regional Airport

Walla Walla, Washington, USA
KALW 171726Z 1718/1818 VRB04KT P6SM SKC FM180600 13004KT 4SM BR SKC FM181000 15004KT 2SM BR SCT005
Issued Valid From Valid To
Nov-17 @ 17:26 UTC
(4 hours ago)
Nov-17 @ 18:00 UTC
(4 hours ago)
Nov-18 @ 18:00 UTC
(in 20 hours)
Nov-17 @ 18:00 to Nov-18 @ 06:00
KALW 171726Z 1718/1818 VRB04KT P6SM SKC
Wind Visibility Clouds
Variable at 4 knots Greater than 6 miles
  • Clear skies
From Nov-18 @ 06:00 to Nov-18 @ 10:00
FM180600 13004KT 4SM BR SKC
Wind Visibility Clouds Conditions
130° at 4 knots 4 miles
  • Clear skies
  • Mist
From Nov-18 @ 10:00 to Nov-18 @ 18:00
FM181000 15004KT 2SM BR SCT005
Wind Visibility Clouds Conditions
150° at 4 knots 2 miles
  • Scattered at 500' AGL
  • Mist
KALW 171726Z 1718/1818 VRB04KT P6SM SKC FM180600 13004KT 4SM BR SKC FM181000 15004KT 2SM BR SCT005
Issued Nov-17 @ 17:26 UTC
(4 hours ago)
Valid From Nov-17 @ 18:00 UTC
(4 hours ago)
Valid To Nov-18 @ 18:00 UTC
(in 20 hours)
Nov-17 @ 18:00 - Nov-18 @ 06:00
Wind Visibility
Variable at 4 knots Greater than 6 miles
Clouds
  • Clear skies
From Nov-18 @ 06:00 - Nov-18 @ 10:00
Wind Visibility
130° at 4 knots 4 miles
Clouds
  • Clear skies
Conditions
  • Mist
From Nov-18 @ 10:00 - Nov-18 @ 18:00
Wind Visibility
150° at 4 knots 2 miles
Clouds
  • Scattered at 500' AGL
Conditions
  • Mist